sensor_id;sensor_type;location;lat;lon;timestamp;temperature;humidity
75430;DHT22;64127;51.488;5.462;2023-03-01T00:00:07;3.40;68.50
75430;DHT22;64127;51.488;5.462;2023-03-01T00:02:39;3.40;68.70
75430;DHT22;64127;51.488;5.462;2023-03-01T00:05:11;3.40;68.90
75430;DHT22;64127;51.488;5.462;2023-03-01T00:07:44;3.40;69.80
75430;DHT22;64127;51.488;5.462;2023-03-01T00:10:16;3.40;69.20
75430;DHT22;64127;51.488;5.462;2023-03-01T00:12:48;3.30;69.20
75430;DHT22;64127;51.488;5.462;2023-03-01T00:15:20;3.30;69.30
75430;DHT22;64127;51.488;5.462;2023-03-01T00:17:52;3.20;69.40
75430;DHT22;64127;51.488;5.462;2023-03-01T00:20:24;3.20;69.50
75430;DHT22;64127;51.488;5.462;2023-03-01T00:22:56;3.20;69.50
75430;DHT22;64127;51.488;5.462;2023-03-01T00:25:28;3.30;69.60
75430;DHT22;64127;51.488;5.462;2023-03-01T00:27:59;3.30;69.70
75430;DHT22;64127;51.488;5.462;2023-03-01T00:30:33;3.20;69.70
75430;DHT22;64127;51.488;5.462;2023-03-01T00:33:05;3.20;70.00
75430;DHT22;64127;51.488;5.462;2023-03-01T00:35:37;3.20;70.00
75430;DHT22;64127;51.488;5.462;2023-03-01T00:38:09;3.20;70.10
75430;DHT22;64127;51.488;5.462;2023-03-01T00:40:41;3.20;70.20
75430;DHT22;64127;51.488;5.462;2023-03-01T00:43:13;3.10;70.00
75430;DHT22;64127;51.488;5.462;2023-03-01T00:45:45;3.10;70.10
75430;DHT22;64127;51.488;5.462;2023-03-01T00:48:17;3.10;70.20
75430;DHT22;64127;51.488;5.462;2023-03-01T00:50:49;3.10;70.40
75430;DHT22;64127;51.488;5.462;2023-03-01T00:53:21;3.10;70.50
75430;DHT22;64127;51.488;5.462;2023-03-01T00:55:53;3.00;70.60
75430;DHT22;64127;51.488;5.462;2023-03-01T00:58:25;3.00;70.80
75430;DHT22;64127;51.488;5.462;2023-03-01T01:00:58;3.00;71.00
75430;DHT22;64127;51.488;5.462;2023-03-01T01:03:30;3.00;70.90
75430;DHT22;64127;51.488;5.462;2023-03-01T01:06:02;2.90;70.90
75430;DHT22;64127;51.488;5.462;2023-03-01T01:08:40;2.90;71.10
75430;DHT22;64127;51.488;5.462;2023-03-01T01:11:13;2.90;71.30
75430;DHT22;64127;51.488;5.462;2023-03-01T01:13:46;2.80;71.20
75430;DHT22;64127;51.488;5.462;2023-03-01T01:16:20;2.90;71.40
75430;DHT22;64127;51.488;5.462;2023-03-01T01:18:53;2.80;71.50
75430;DHT22;64127;51.488;5.462;2023-03-01T01:21:25;2.80;71.60
75430;DHT22;64127;51.488;5.462;2023-03-01T01:23:58;2.80;71.80
75430;DHT22;64127;51.488;5.462;2023-03-01T01:26:33;2.80;71.80
75430;DHT22;64127;51.488;5.462;2023-03-01T01:29:06;2.70;71.80
75430;DHT22;64127;51.488;5.462;2023-03-01T01:31:39;2.70;71.80
75430;DHT22;64127;51.488;5.462;2023-03-01T01:34:15;2.70;72.20
75430;DHT22;64127;51.488;5.462;2023-03-01T01:36:50;2.60;72.30
75430;DHT22;64127;51.488;5.462;2023-03-01T01:39:25;2.60;72.50
75430;DHT22;64127;51.488;5.462;2023-03-01T01:41:57;2.60;72.70
75430;DHT22;64127;51.488;5.462;2023-03-01T01:44:29;2.60;72.80
75430;DHT22;64127;51.488;5.462;2023-03-01T01:47:05;2.60;72.90
75430;DHT22;64127;51.488;5.462;2023-03-01T01:49:51;2.60;73.10
75430;DHT22;64127;51.488;5.462;2023-03-01T01:52:31;2.50;73.30
75430;DHT22;64127;51.488;5.462;2023-03-01T01:55:18;2.50;73.40
75430;DHT22;64127;51.488;5.462;2023-03-01T01:57:55;2.40;73.30
75430;DHT22;64127;51.488;5.462;2023-03-01T02:00:30;2.40;73.30
75430;DHT22;64127;51.488;5.462;2023-03-01T02:03:23;2.40;73.50
75430;DHT22;64127;51.488;5.462;2023-03-01T02:06:06;2.40;73.80
75430;DHT22;64127;51.488;5.462;2023-03-01T02:08:52;2.40;73.80
75430;DHT22;64127;51.488;5.462;2023-03-01T02:11:25;2.40;73.80
75430;DHT22;64127;51.488;5.462;2023-03-01T02:13:58;2.30;73.90
75430;DHT22;64127;51.488;5.462;2023-03-01T02:16:31;2.30;74.00
75430;DHT22;64127;51.488;5.462;2023-03-01T02:19:05;2.30;74.10
75430;DHT22;64127;51.488;5.462;2023-03-01T02:22:00;2.20;74.20
75430;DHT22;64127;51.488;5.462;2023-03-01T02:30:42;2.20;74.50
75430;DHT22;64127;51.488;5.462;2023-03-01T02:33:36;2.20;74.60
75430;DHT22;64127;51.488;5.462;2023-03-01T02:36:14;2.10;74.60
75430;DHT22;64127;51.488;5.462;2023-03-01T02:38:50;2.10;74.80
75430;DHT22;64127;51.488;5.462;2023-03-01T02:41:26;2.10;75.00
75430;DHT22;64127;51.488;5.462;2023-03-01T02:44:03;2.00;75.10
75430;DHT22;64127;51.488;5.462;2023-03-01T02:46:46;2.10;75.30
75430;DHT22;64127;51.488;5.462;2023-03-01T02:49:21;2.00;75.40
75430;DHT22;64127;51.488;5.462;2023-03-01T02:52:33;2.00;75.40
75430;DHT22;64127;51.488;5.462;2023-03-01T02:55:19;2.00;75.50
75430;DHT22;64127;51.488;5.462;2023-03-01T02:57:51;2.00;75.40
75430;DHT22;64127;51.488;5.462;2023-03-01T03:00:28;2.00;75.50
75430;DHT22;64127;51.488;5.462;2023-03-01T03:03:06;2.00;75.70
75430;DHT22;64127;51.488;5.462;2023-03-01T03:05:39;2.00;75.80
75430;DHT22;64127;51.488;5.462;2023-03-01T03:08:11;1.90;75.90
75430;DHT22;64127;51.488;5.462;2023-03-01T03:10:43;1.90;76.00
75430;DHT22;64127;51.488;5.462;2023-03-01T03:13:15;1.90;76.40
75430;DHT22;64127;51.488;5.462;2023-03-01T03:15:48;1.90;76.40
75430;DHT22;64127;51.488;5.462;2023-03-01T03:18:20;1.80;76.30
75430;DHT22;64127;51.488;5.462;2023-03-01T03:20:53;1.80;76.20
75430;DHT22;64127;51.488;5.462;2023-03-01T03:23:26;1.80;76.30
75430;DHT22;64127;51.488;5.462;2023-03-01T03:25:58;1.80;76.30
75430;DHT22;64127;51.488;5.462;2023-03-01T03:28:31;1.80;76.60
75430;DHT22;64127;51.488;5.462;2023-03-01T03:31:06;1.80;76.90
75430;DHT22;64127;51.488;5.462;2023-03-01T03:33:39;1.80;77.20
75430;DHT22;64127;51.488;5.462;2023-03-01T03:36:16;1.70;77.20
75430;DHT22;64127;51.488;5.462;2023-03-01T03:38:49;1.70;77.40
75430;DHT22;64127;51.488;5.462;2023-03-01T03:41:21;1.70;77.50
75430;DHT22;64127;51.488;5.462;2023-03-01T03:43:53;1.70;77.60
75430;DHT22;64127;51.488;5.462;2023-03-01T03:46:25;1.70;77.60
75430;DHT22;64127;51.488;5.462;2023-03-01T03:48:57;1.70;77.70
75430;DHT22;64127;51.488;5.462;2023-03-01T03:51:29;1.70;77.90
75430;DHT22;64127;51.488;5.462;2023-03-01T03:54:01;1.70;78.00
75430;DHT22;64127;51.488;5.462;2023-03-01T03:56:33;1.60;78.00
75430;DHT22;64127;51.488;5.462;2023-03-01T03:59:06;1.60;78.20
75430;DHT22;64127;51.488;5.462;2023-03-01T04:01:38;1.70;78.30
75430;DHT22;64127;51.488;5.462;2023-03-01T04:04:10;1.60;78.40
75430;DHT22;64127;51.488;5.462;2023-03-01T04:06:42;1.60;78.50
75430;DHT22;64127;51.488;5.462;2023-03-01T04:09:14;1.60;78.70
75430;DHT22;64127;51.488;5.462;2023-03-01T04:11:46;1.60;78.80
75430;DHT22;64127;51.488;5.462;2023-03-01T04:14:18;1.60;78.90
75430;DHT22;64127;51.488;5.462;2023-03-01T04:16:50;1.60;79.00
75430;DHT22;64127;51.488;5.462;2023-03-01T04:19:22;1.60;79.10
75430;DHT22;64127;51.488;5.462;2023-03-01T04:21:54;1.60;79.20
75430;DHT22;64127;51.488;5.462;2023-03-01T04:24:26;1.60;79.40
75430;DHT22;64127;51.488;5.462;2023-03-01T04:26:58;1.60;79.60
75430;DHT22;64127;51.488;5.462;2023-03-01T04:29:30;1.50;79.50
75430;DHT22;64127;51.488;5.462;2023-03-01T04:32:02;1.60;79.80
75430;DHT22;64127;51.488;5.462;2023-03-01T04:34:35;1.50;79.80
75430;DHT22;64127;51.488;5.462;2023-03-01T04:37:07;1.50;79.90
75430;DHT22;64127;51.488;5.462;2023-03-01T04:39:40;1.60;80.10
75430;DHT22;64127;51.488;5.462;2023-03-01T04:42:17;1.60;80.20
75430;DHT22;64127;51.488;5.462;2023-03-01T04:44:49;1.60;80.30
75430;DHT22;64127;51.488;5.462;2023-03-01T04:47:24;1.50;80.20
75430;DHT22;64127;51.488;5.462;2023-03-01T04:49:56;1.50;80.20
75430;DHT22;64127;51.488;5.462;2023-03-01T04:52:28;1.50;80.30
75430;DHT22;64127;51.488;5.462;2023-03-01T04:55:00;1.50;80.40
75430;DHT22;64127;51.488;5.462;2023-03-01T04:57:33;1.50;80.60
75430;DHT22;64127;51.488;5.462;2023-03-01T05:00:09;1.50;80.70
75430;DHT22;64127;51.488;5.462;2023-03-01T05:02:55;1.50;81.00
75430;DHT22;64127;51.488;5.462;2023-03-01T05:05:37;1.40;80.90
75430;DHT22;64127;51.488;5.462;2023-03-01T05:08:11;1.40;81.10
75430;DHT22;64127;51.488;5.462;2023-03-01T05:10:51;1.40;81.10
75430;DHT22;64127;51.488;5.462;2023-03-01T05:13:24;1.40;81.10
75430;DHT22;64127;51.488;5.462;2023-03-01T05:15:58;1.40;81.10
75430;DHT22;64127;51.488;5.462;2023-03-01T05:18:33;1.40;81.30
75430;DHT22;64127;51.488;5.462;2023-03-01T05:21:11;1.40;81.40
75430;DHT22;64127;51.488;5.462;2023-03-01T05:23:45;1.40;81.80
75430;DHT22;64127;51.488;5.462;2023-03-01T05:26:20;1.40;81.80
75430;DHT22;64127;51.488;5.462;2023-03-01T05:28:59;1.40;81.90
75430;DHT22;64127;51.488;5.462;2023-03-01T05:31:31;1.30;81.90
75430;DHT22;64127;51.488;5.462;2023-03-01T05:34:03;1.40;82.10
75430;DHT22;64127;51.488;5.462;2023-03-01T05:36:36;1.30;82.10
75430;DHT22;64127;51.488;5.462;2023-03-01T05:39:08;1.30;82.20
75430;DHT22;64127;51.488;5.462;2023-03-01T05:41:40;1.30;82.40
75430;DHT22;64127;51.488;5.462;2023-03-01T05:44:12;1.30;82.60
75430;DHT22;64127;51.488;5.462;2023-03-01T05:46:44;1.30;82.60
75430;DHT22;64127;51.488;5.462;2023-03-01T05:49:16;1.30;82.70
75430;DHT22;64127;51.488;5.462;2023-03-01T05:51:51;1.30;82.80
75430;DHT22;64127;51.488;5.462;2023-03-01T05:54:24;1.30;82.80
75430;DHT22;64127;51.488;5.462;2023-03-01T05:56:56;1.20;82.70
75430;DHT22;64127;51.488;5.462;2023-03-01T05:59:28;1.20;82.90
75430;DHT22;64127;51.488;5.462;2023-03-01T06:02:00;1.20;83.00
75430;DHT22;64127;51.488;5.462;2023-03-01T06:04:32;1.20;83.20
75430;DHT22;64127;51.488;5.462;2023-03-01T06:07:04;1.20;83.40
75430;DHT22;64127;51.488;5.462;2023-03-01T06:09:36;1.20;83.40
75430;DHT22;64127;51.488;5.462;2023-03-01T06:12:08;1.20;83.50
75430;DHT22;64127;51.488;5.462;2023-03-01T06:14:40;1.20;83.50
75430;DHT22;64127;51.488;5.462;2023-03-01T06:17:12;1.10;83.60
75430;DHT22;64127;51.488;5.462;2023-03-01T06:19:44;1.10;83.10
75430;DHT22;64127;51.488;5.462;2023-03-01T06:22:16;1.10;83.90
75430;DHT22;64127;51.488;5.462;2023-03-01T06:24:48;1.10;83.90
75430;DHT22;64127;51.488;5.462;2023-03-01T06:27:20;1.10;84.00
75430;DHT22;64127;51.488;5.462;2023-03-01T06:29:52;1.10;84.10
75430;DHT22;64127;51.488;5.462;2023-03-01T06:32:24;1.10;84.30
75430;DHT22;64127;51.488;5.462;2023-03-01T06:34:56;1.10;84.40
75430;DHT22;64127;51.488;5.462;2023-03-01T06:37:30;1.10;84.60
75430;DHT22;64127;51.488;5.462;2023-03-01T06:40:03;1.10;84.60
75430;DHT22;64127;51.488;5.462;2023-03-01T06:42:41;1.10;84.80
75430;DHT22;64127;51.488;5.462;2023-03-01T06:45:15;1.10;84.80
75430;DHT22;64127;51.488;5.462;2023-03-01T06:47:49;1.10;84.80
75430;DHT22;64127;51.488;5.462;2023-03-01T06:50:21;1.10;84.80
75430;DHT22;64127;51.488;5.462;2023-03-01T06:52:57;1.20;85.00
75430;DHT22;64127;51.488;5.462;2023-03-01T06:55:29;1.20;85.10
75430;DHT22;64127;51.488;5.462;2023-03-01T06:58:02;1.20;85.10
75430;DHT22;64127;51.488;5.462;2023-03-01T07:00:35;1.20;85.10
75430;DHT22;64127;51.488;5.462;2023-03-01T07:03:07;1.20;85.10
75430;DHT22;64127;51.488;5.462;2023-03-01T07:05:40;1.30;85.20
75430;DHT22;64127;51.488;5.462;2023-03-01T07:08:12;1.30;85.20
75430;DHT22;64127;51.488;5.462;2023-03-01T07:10:44;1.40;85.30
75430;DHT22;64127;51.488;5.462;2023-03-01T07:13:16;1.50;85.30
75430;DHT22;64127;51.488;5.462;2023-03-01T07:15:48;1.60;85.30
75430;DHT22;64127;51.488;5.462;2023-03-01T07:18:20;1.70;85.30
75430;DHT22;64127;51.488;5.462;2023-03-01T07:20:52;1.80;85.20
75430;DHT22;64127;51.488;5.462;2023-03-01T07:23:24;1.90;85.00
75430;DHT22;64127;51.488;5.462;2023-03-01T07:25:56;2.00;84.90
75430;DHT22;64127;51.488;5.462;2023-03-01T07:28:28;2.10;84.80
75430;DHT22;64127;51.488;5.462;2023-03-01T07:31:02;2.10;84.40
75430;DHT22;64127;51.488;5.462;2023-03-01T07:33:35;2.20;84.40
75430;DHT22;64127;51.488;5.462;2023-03-01T07:36:07;2.30;84.30
75430;DHT22;64127;51.488;5.462;2023-03-01T07:38:40;2.40;84.10
75430;DHT22;64127;51.488;5.462;2023-03-01T07:41:12;2.40;83.90
75430;DHT22;64127;51.488;5.462;2023-03-01T07:43:44;2.50;83.80
75430;DHT22;64127;51.488;5.462;2023-03-01T07:46:16;2.60;83.70
75430;DHT22;64127;51.488;5.462;2023-03-01T07:48:50;2.70;83.60
75430;DHT22;64127;51.488;5.462;2023-03-01T07:51:22;2.80;83.60
75430;DHT22;64127;51.488;5.462;2023-03-01T07:53:54;3.00;83.50
75430;DHT22;64127;51.488;5.462;2023-03-01T07:56:26;3.20;83.10
75430;DHT22;64127;51.488;5.462;2023-03-01T07:58:59;3.40;83.10
75430;DHT22;64127;51.488;5.462;2023-03-01T08:01:31;3.60;82.80
75430;DHT22;64127;51.488;5.462;2023-03-01T08:04:03;3.80;82.20
75430;DHT22;64127;51.488;5.462;2023-03-01T08:06:38;4.00;81.60
75430;DHT22;64127;51.488;5.462;2023-03-01T08:09:10;4.20;81.20
75430;DHT22;64127;51.488;5.462;2023-03-01T08:11:42;4.40;80.60
75430;DHT22;64127;51.488;5.462;2023-03-01T08:14:14;4.50;80.20
75430;DHT22;64127;51.488;5.462;2023-03-01T08:16:49;4.70;79.60
75430;DHT22;64127;51.488;5.462;2023-03-01T08:19:21;4.80;80.00
75430;DHT22;64127;51.488;5.462;2023-03-01T08:21:54;4.90;78.80
75430;DHT22;64127;51.488;5.462;2023-03-01T08:24:29;5.00;78.40
75430;DHT22;64127;51.488;5.462;2023-03-01T08:27:01;5.20;78.00
75430;DHT22;64127;51.488;5.462;2023-03-01T08:29:34;5.20;77.50
75430;DHT22;64127;51.488;5.462;2023-03-01T08:32:06;5.30;77.10
75430;DHT22;64127;51.488;5.462;2023-03-01T08:34:38;5.40;77.00
75430;DHT22;64127;51.488;5.462;2023-03-01T08:37:13;5.60;76.70
75430;DHT22;64127;51.488;5.462;2023-03-01T08:39:45;5.70;76.50
75430;DHT22;64127;51.488;5.462;2023-03-01T08:42:18;5.80;76.00
75430;DHT22;64127;51.488;5.462;2023-03-01T08:44:50;6.00;75.50
75430;DHT22;64127;51.488;5.462;2023-03-01T08:47:22;6.10;75.00
75430;DHT22;64127;51.488;5.462;2023-03-01T08:49:54;6.20;74.70
75430;DHT22;64127;51.488;5.462;2023-03-01T08:52:26;6.30;74.00
75430;DHT22;64127;51.488;5.462;2023-03-01T08:54:58;6.30;73.40
75430;DHT22;64127;51.488;5.462;2023-03-01T08:57:30;6.40;73.30
75430;DHT22;64127;51.488;5.462;2023-03-01T09:00:03;6.40;73.00
75430;DHT22;64127;51.488;5.462;2023-03-01T09:02:39;6.60;73.00
75430;DHT22;64127;51.488;5.462;2023-03-01T09:05:11;6.70;72.60
75430;DHT22;64127;51.488;5.462;2023-03-01T09:07:43;6.80;72.00
75430;DHT22;64127;51.488;5.462;2023-03-01T09:10:15;6.90;71.50
75430;DHT22;64127;51.488;5.462;2023-03-01T09:12:47;7.00;71.00
75430;DHT22;64127;51.488;5.462;2023-03-01T09:15:19;7.00;70.60
75430;DHT22;64127;51.488;5.462;2023-03-01T09:17:51;7.10;70.70
75430;DHT22;64127;51.488;5.462;2023-03-01T09:20:24;7.00;70.10
75430;DHT22;64127;51.488;5.462;2023-03-01T09:22:56;7.10;70.00
75430;DHT22;64127;51.488;5.462;2023-03-01T09:25:28;7.20;69.80
75430;DHT22;64127;51.488;5.462;2023-03-01T09:28:00;7.20;69.50
75430;DHT22;64127;51.488;5.462;2023-03-01T09:30:32;7.20;69.10
75430;DHT22;64127;51.488;5.462;2023-03-01T09:33:04;7.30;68.70
75430;DHT22;64127;51.488;5.462;2023-03-01T09:35:37;7.30;68.30
75430;DHT22;64127;51.488;5.462;2023-03-01T09:38:09;7.30;68.20
75430;DHT22;64127;51.488;5.462;2023-03-01T09:40:44;7.40;68.90
75430;DHT22;64127;51.488;5.462;2023-03-01T09:43:20;7.60;67.80
75430;DHT22;64127;51.488;5.462;2023-03-01T09:46:04;7.70;67.50
75430;DHT22;64127;51.488;5.462;2023-03-01T09:48:43;8.00;66.90
75430;DHT22;64127;51.488;5.462;2023-03-01T09:51:30;8.20;66.30
75430;DHT22;64127;51.488;5.462;2023-03-01T09:54:05;8.30;65.70
75430;DHT22;64127;51.488;5.462;2023-03-01T09:56:45;8.40;65.20
75430;DHT22;64127;51.488;5.462;2023-03-01T10:03:11;8.60;64.30
75430;DHT22;64127;51.488;5.462;2023-03-01T10:05:52;8.70;63.70
75430;DHT22;64127;51.488;5.462;2023-03-01T10:08:46;8.90;63.60
75430;DHT22;64127;51.488;5.462;2023-03-01T10:11:39;9.00;63.20
75430;DHT22;64127;51.488;5.462;2023-03-01T10:14:34;9.20;62.60
75430;DHT22;64127;51.488;5.462;2023-03-01T10:17:19;9.30;61.80
75430;DHT22;64127;51.488;5.462;2023-03-01T10:20:20;9.30;61.80
75430;DHT22;64127;51.488;5.462;2023-03-01T10:23:10;9.40;60.90
75430;DHT22;64127;51.488;5.462;2023-03-01T10:29:07;9.30;60.30
75430;DHT22;64127;51.488;5.462;2023-03-01T10:31:48;9.30;59.90
75430;DHT22;64127;51.488;5.462;2023-03-01T10:34:33;9.20;59.80
75430;DHT22;64127;51.488;5.462;2023-03-01T10:37:20;9.40;59.60
75430;DHT22;64127;51.488;5.462;2023-03-01T10:42:32;9.70;59.10
75430;DHT22;64127;51.488;5.462;2023-03-01T10:45:35;9.80;58.80
75430;DHT22;64127;51.488;5.462;2023-03-01T10:48:11;9.90;58.30
75430;DHT22;64127;51.488;5.462;2023-03-01T10:51:05;10.00;57.40
75430;DHT22;64127;51.488;5.462;2023-03-01T10:53:44;10.20;56.90
75430;DHT22;64127;51.488;5.462;2023-03-01T10:56:21;10.20;56.70
75430;DHT22;64127;51.488;5.462;2023-03-01T10:59:04;10.20;56.60
75430;DHT22;64127;51.488;5.462;2023-03-01T11:01:37;10.20;56.30
75430;DHT22;64127;51.488;5.462;2023-03-01T11:04:10;10.30;56.30
75430;DHT22;64127;51.488;5.462;2023-03-01T11:06:59;10.40;56.10
75430;DHT22;64127;51.488;5.462;2023-03-01T11:09:33;10.50;55.90
75430;DHT22;64127;51.488;5.462;2023-03-01T11:12:14;10.60;55.80
75430;DHT22;64127;51.488;5.462;2023-03-01T11:14:55;10.70;55.60
75430;DHT22;64127;51.488;5.462;2023-03-01T11:17:30;10.90;55.50
75430;DHT22;64127;51.488;5.462;2023-03-01T11:20:35;11.10;55.40
75430;DHT22;64127;51.488;5.462;2023-03-01T11:23:12;11.20;55.00
75430;DHT22;64127;51.488;5.462;2023-03-01T11:25:54;11.20;54.70
75430;DHT22;64127;51.488;5.462;2023-03-01T11:28:28;11.30;54.50
75430;DHT22;64127;51.488;5.462;2023-03-01T11:31:08;11.30;54.50
75430;DHT22;64127;51.488;5.462;2023-03-01T11:33:48;11.40;54.40
75430;DHT22;64127;51.488;5.462;2023-03-01T11:36:41;11.50;54.20
75430;DHT22;64127;51.488;5.462;2023-03-01T11:39:37;11.50;54.10
75430;DHT22;64127;51.488;5.462;2023-03-01T11:42:18;11.60;54.10
75430;DHT22;64127;51.488;5.462;2023-03-01T11:44:59;11.70;53.70
75430;DHT22;64127;51.488;5.462;2023-03-01T11:50:39;11.60;53.60
75430;DHT22;64127;51.488;5.462;2023-03-01T11:58:53;11.70;53.40
75430;DHT22;64127;51.488;5.462;2023-03-01T12:08:06;11.80;52.90
75430;DHT22;64127;51.488;5.462;2023-03-01T12:10:57;11.90;52.90
75430;DHT22;64127;51.488;5.462;2023-03-01T12:13:51;12.10;52.80
75430;DHT22;64127;51.488;5.462;2023-03-01T12:23:28;12.50;52.10
75430;DHT22;64127;51.488;5.462;2023-03-01T12:29:30;12.20;52.00
75430;DHT22;64127;51.488;5.462;2023-03-01T12:38:32;12.10;52.20
75430;DHT22;64127;51.488;5.462;2023-03-01T12:47:14;12.30;51.30
75430;DHT22;64127;51.488;5.462;2023-03-01T12:49:59;12.30;51.10
75430;DHT22;64127;51.488;5.462;2023-03-01T12:52:44;12.30;51.00
75430;DHT22;64127;51.488;5.462;2023-03-01T12:55:33;12.30;51.00
75430;DHT22;64127;51.488;5.462;2023-03-01T12:58:32;12.30;51.10
75430;DHT22;64127;51.488;5.462;2023-03-01T13:01:42;12.40;51.10
75430;DHT22;64127;51.488;5.462;2023-03-01T13:07:41;12.60;50.80
75430;DHT22;64127;51.488;5.462;2023-03-01T13:10:46;12.70;50.80
75430;DHT22;64127;51.488;5.462;2023-03-01T13:13:23;12.80;50.60
75430;DHT22;64127;51.488;5.462;2023-03-01T13:15:57;13.00;50.40
75430;DHT22;64127;51.488;5.462;2023-03-01T13:19:27;13.20;50.40
75430;DHT22;64127;51.488;5.462;2023-03-01T13:22:31;13.40;49.90
75430;DHT22;64127;51.488;5.462;2023-03-01T13:25:15;13.40;49.70
75430;DHT22;64127;51.488;5.462;2023-03-01T13:27:50;13.40;49.50
75430;DHT22;64127;51.488;5.462;2023-03-01T13:35:59;13.80;49.00
75430;DHT22;64127;51.488;5.462;2023-03-01T13:38:46;14.00;48.90
75430;DHT22;64127;51.488;5.462;2023-03-01T13:49:53;14.30;47.80
75430;DHT22;64127;51.488;5.462;2023-03-01T13:52:40;14.40;47.60
75430;DHT22;64127;51.488;5.462;2023-03-01T13:58:01;14.90;47.40
75430;DHT22;64127;51.488;5.462;2023-03-01T14:00:38;15.20;47.30
75430;DHT22;64127;51.488;5.462;2023-03-01T14:03:18;15.40;46.80
75430;DHT22;64127;51.488;5.462;2023-03-01T14:06:08;15.50;46.20
75430;DHT22;64127;51.488;5.462;2023-03-01T14:08:50;15.40;45.80
75430;DHT22;64127;51.488;5.462;2023-03-01T14:11:46;15.10;45.90
75430;DHT22;64127;51.488;5.462;2023-03-01T14:14:41;15.00;46.20
75430;DHT22;64127;51.488;5.462;2023-03-01T14:20:21;15.30;45.70
75430;DHT22;64127;51.488;5.462;2023-03-01T14:23:11;15.50;46.60
75430;DHT22;64127;51.488;5.462;2023-03-01T14:25:57;15.70;45.90
75430;DHT22;64127;51.488;5.462;2023-03-01T14:28:31;15.90;45.50
75430;DHT22;64127;51.488;5.462;2023-03-01T14:31:36;16.00;45.20
75430;DHT22;64127;51.488;5.462;2023-03-01T14:34:24;16.20;44.90
75430;DHT22;64127;51.488;5.462;2023-03-01T14:36:56;16.50;44.80
75430;DHT22;64127;51.488;5.462;2023-03-01T14:39:42;16.60;44.80
75430;DHT22;64127;51.488;5.462;2023-03-01T14:42:14;16.70;43.90
75430;DHT22;64127;51.488;5.462;2023-03-01T14:44:52;16.70;43.60
75430;DHT22;64127;51.488;5.462;2023-03-01T14:47:28;16.80;43.40
75430;DHT22;64127;51.488;5.462;2023-03-01T14:50:08;16.90;43.30
75430;DHT22;64127;51.488;5.462;2023-03-01T14:53:03;16.90;42.80
75430;DHT22;64127;51.488;5.462;2023-03-01T14:55:40;16.80;42.60
75430;DHT22;64127;51.488;5.462;2023-03-01T14:58:18;16.80;42.80
75430;DHT22;64127;51.488;5.462;2023-03-01T15:00:53;16.80;42.80
75430;DHT22;64127;51.488;5.462;2023-03-01T15:06:20;16.90;42.10
75430;DHT22;64127;51.488;5.462;2023-03-01T15:08:54;16.90;42.40
75430;DHT22;64127;51.488;5.462;2023-03-01T15:11:30;17.00;41.70
75430;DHT22;64127;51.488;5.462;2023-03-01T15:14:39;17.20;41.30
75430;DHT22;64127;51.488;5.462;2023-03-01T15:17:50;17.30;40.90
75430;DHT22;64127;51.488;5.462;2023-03-01T15:20:28;17.30;40.60
75430;DHT22;64127;51.488;5.462;2023-03-01T15:23:04;17.40;40.60
75430;DHT22;64127;51.488;5.462;2023-03-01T15:25:36;17.50;40.20
75430;DHT22;64127;51.488;5.462;2023-03-01T15:28:19;17.50;40.20
75430;DHT22;64127;51.488;5.462;2023-03-01T15:30:58;17.40;40.10
75430;DHT22;64127;51.488;5.462;2023-03-01T15:33:37;17.50;40.20
75430;DHT22;64127;51.488;5.462;2023-03-01T15:36:29;17.70;39.90
75430;DHT22;64127;51.488;5.462;2023-03-01T15:39:04;17.90;39.40
75430;DHT22;64127;51.488;5.462;2023-03-01T15:41:46;18.20;39.40
75430;DHT22;64127;51.488;5.462;2023-03-01T15:44:32;18.30;38.90
75430;DHT22;64127;51.488;5.462;2023-03-01T15:47:27;18.40;38.70
75430;DHT22;64127;51.488;5.462;2023-03-01T15:50:02;18.50;38.60
75430;DHT22;64127;51.488;5.462;2023-03-01T15:52:39;18.50;38.60
75430;DHT22;64127;51.488;5.462;2023-03-01T15:55:34;18.50;38.40
75430;DHT22;64127;51.488;5.462;2023-03-01T15:58:10;18.40;38.00
75430;DHT22;64127;51.488;5.462;2023-03-01T16:00:46;18.30;38.20
75430;DHT22;64127;51.488;5.462;2023-03-01T16:03:31;18.20;38.20
75430;DHT22;64127;51.488;5.462;2023-03-01T16:06:03;18.10;38.20
75430;DHT22;64127;51.488;5.462;2023-03-01T16:08:36;18.00;38.20
75430;DHT22;64127;51.488;5.462;2023-03-01T16:11:17;17.90;38.20
75430;DHT22;64127;51.488;5.462;2023-03-01T16:13:50;17.90;38.10
75430;DHT22;64127;51.488;5.462;2023-03-01T16:16:22;17.90;38.20
75430;DHT22;64127;51.488;5.462;2023-03-01T16:18:54;18.00;38.20
75430;DHT22;64127;51.488;5.462;2023-03-01T16:21:26;18.20;38.30
75430;DHT22;64127;51.488;5.462;2023-03-01T16:23:59;18.30;38.10
75430;DHT22;64127;51.488;5.462;2023-03-01T16:26:31;18.40;38.00
75430;DHT22;64127;51.488;5.462;2023-03-01T16:29:07;18.30;37.90
75430;DHT22;64127;51.488;5.462;2023-03-01T16:31:39;18.20;38.00
75430;DHT22;64127;51.488;5.462;2023-03-01T16:34:11;17.90;38.10
75430;DHT22;64127;51.488;5.462;2023-03-01T16:36:43;17.30;38.30
75430;DHT22;64127;51.488;5.462;2023-03-01T16:39:16;16.80;38.90
75430;DHT22;64127;51.488;5.462;2023-03-01T16:41:48;16.30;39.20
75430;DHT22;64127;51.488;5.462;2023-03-01T16:44:20;15.90;39.70
75430;DHT22;64127;51.488;5.462;2023-03-01T16:46:52;15.70;40.20
75430;DHT22;64127;51.488;5.462;2023-03-01T16:49:24;15.40;40.40
75430;DHT22;64127;51.488;5.462;2023-03-01T16:51:56;15.10;40.60
75430;DHT22;64127;51.488;5.462;2023-03-01T16:54:28;14.60;40.80
75430;DHT22;64127;51.488;5.462;2023-03-01T16:57:00;14.20;41.20
75430;DHT22;64127;51.488;5.462;2023-03-01T16:59:32;13.70;41.80
75430;DHT22;64127;51.488;5.462;2023-03-01T17:02:10;13.10;42.20
75430;DHT22;64127;51.488;5.462;2023-03-01T17:04:44;12.70;42.90
75430;DHT22;64127;51.488;5.462;2023-03-01T17:07:16;12.20;43.30
75430;DHT22;64127;51.488;5.462;2023-03-01T17:09:48;11.80;43.80
75430;DHT22;64127;51.488;5.462;2023-03-01T17:12:20;11.50;44.30
75430;DHT22;64127;51.488;5.462;2023-03-01T17:14:52;11.20;44.40
75430;DHT22;64127;51.488;5.462;2023-03-01T17:17:24;10.90;45.00
75430;DHT22;64127;51.488;5.462;2023-03-01T17:19:57;10.70;45.40
75430;DHT22;64127;51.488;5.462;2023-03-01T17:22:29;10.50;45.60
75430;DHT22;64127;51.488;5.462;2023-03-01T17:25:01;10.40;45.90
75430;DHT22;64127;51.488;5.462;2023-03-01T17:27:33;10.20;46.20
75430;DHT22;64127;51.488;5.462;2023-03-01T17:30:08;10.10;46.40
75430;DHT22;64127;51.488;5.462;2023-03-01T17:32:41;10.00;46.60
75430;DHT22;64127;51.488;5.462;2023-03-01T17:35:13;9.90;47.60
75430;DHT22;64127;51.488;5.462;2023-03-01T17:37:46;9.80;47.90
75430;DHT22;64127;51.488;5.462;2023-03-01T17:40:18;9.70;48.00
75430;DHT22;64127;51.488;5.462;2023-03-01T17:42:50;9.70;49.00
75430;DHT22;64127;51.488;5.462;2023-03-01T17:45:22;9.60;49.20
75430;DHT22;64127;51.488;5.462;2023-03-01T17:47:54;9.50;49.20
75430;DHT22;64127;51.488;5.462;2023-03-01T17:50:26;9.50;49.20
75430;DHT22;64127;51.488;5.462;2023-03-01T17:52:58;9.40;49.20
75430;DHT22;64127;51.488;5.462;2023-03-01T17:55:30;9.40;49.40
75430;DHT22;64127;51.488;5.462;2023-03-01T17:58:04;9.40;49.60